NOAA Web Site Link Tides and Currents Home Page Transparent placeholder image

PORTS® Data Listing: 8519483 Bergen Point West Reach, NY

CO-OPS RAW PORTS DATA

************************      PRELIMINARY DATA      ************************** 

     THIS RAW DATA HAS NOT BEEN SUBJECT TO THE NATIONAL OCEAN SERVICE'S        
     QUALITY CONTROL OR QUALITY ASSURANCE PROCEDURES AND DOES NOT MEET         
     THE CRITERIA AND STANDARDS OF OFFICIAL NATIONAL OCEAN SERVICE             
     DATA.  IT IS RELEASED FOR LIMITED PUBLIC USE AS PRELIMINARY DATA TO       
     BE USED ONLY WITH APPROPRIATE CAUTION.                                    

************************      PRELIMINARY DATA      ************************** 


       CD   -   Calendar date
       T    -   Time
       TZ   -   Timezone
       PW   -   Predicted water level (feet above MLLW)
       OW   -   Observed water level (feet above MLLW)
       WS   -   Wind speed (knots)
       WD   -   Wind direction (degrees true)
       WG   -   Wind gust (knots)
       AT   -   Air temperature (degrees farenheit)
       WT   -   Water temperature (degrees farenheit)
       AP   -   Air pressure (millibars)
       SA   -   Salinty (PSU - Practical Salinity Units)
       SG   -   Specific gravity
       RH   -   Relative humidity
       AG   -   Air gap (feet)
       VI   -   Visibility (nautical miles)

       ** NOTE **
       A variable that has its data fields filled with "9"s, indicates that
       data was not collected for that sample period.
       **********


STATION NAME: Bergen Point West Reach (8519483)
****************************************************************************************************
    CD       T    TZ    PW     OW    WS   WD   WG    AT    WT    AP    SA    SG     RH    AG   VI
****************************************************************************************************
2019/06/26 00:30 EDT    3.23   4.12 -999 -999 -999  76.5  70.7 1012.4 -9.9 -9.999 -99.9 -99.99 -9.99
2019/06/26 00:36 EDT    3.32   4.25 -999 -999 -999  76.3  70.7 1012.5 -9.9 -9.999 -99.9 -99.99 -9.99
2019/06/26 00:42 EDT    3.41   4.34 -999 -999 -999  76.1  70.5 1012.5 -9.9 -9.999 -99.9 -99.99 -9.99
2019/06/26 00:48 EDT    3.50   4.45 -999 -999 -999  75.9  70.5 1012.5 -9.9 -9.999 -99.9 -99.99 -9.99
2019/06/26 00:54 EDT    3.59   4.57 -999 -999 -999  75.6  70.3 1012.5 -9.9 -9.999 -99.9 -99.99 -9.99
2019/06/26 01:00 EDT    3.67   4.66 -999 -999 -999  75.6  70.3 1012.6 -9.9 -9.999 -99.9 -99.99 -9.99
2019/06/26 01:06 EDT    3.75   4.74 -999 -999 -999  75.4  70.2 1012.5 -9.9 -9.999 -99.9 -99.99 -9.99
2019/06/26 01:12 EDT    3.82   4.78 -999 -999 -999  75.4  70.2 1012.6 -9.9 -9.999 -99.9 -99.99 -9.99
2019/06/26 01:18 EDT    3.89   4.88 -999 -999 -999  75.7  70.2 1012.7 -9.9 -9.999 -99.9 -99.99 -9.99
2019/06/26 01:24 EDT    3.96   4.96 -999 -999 -999  75.6  70.0 1012.7 -9.9 -9.999 -99.9 -99.99 -9.99
2019/06/26 01:30 EDT    4.03   5.02 -999 -999 -999  75.2  70.0 1012.6 -9.9 -9.999 -99.9 -99.99 -9.99
2019/06/26 01:36 EDT    4.09   5.10 -999 -999 -999  75.0  69.8 1012.7 -9.9 -9.999 -99.9 -99.99 -9.99
2019/06/26 01:42 EDT    4.14   5.17 -999 -999 -999  75.2  69.6 1012.8 -9.9 -9.999 -99.9 -99.99 -9.99
2019/06/26 01:48 EDT    4.20   5.22 -999 -999 -999  75.4  69.6 1012.9 -9.9 -9.999 -99.9 -99.99 -9.99
2019/06/26 01:54 EDT    4.25   5.27 -999 -999 -999  75.2  69.6 1013.0 -9.9 -9.999 -99.9 -99.99 -9.99
2019/06/26 02:00 EDT    4.29   5.32 -999 -999 -999  75.2  69.6 1013.1 -9.9 -9.999 -99.9 -99.99 -9.99
2019/06/26 02:06 EDT    4.33   5.35 -999 -999 -999  76.3  69.4 1013.0 -9.9 -9.999 -99.9 -99.99 -9.99
2019/06/26 02:12 EDT    4.37   5.37 -999 -999 -999  75.9  69.4 1013.1 -9.9 -9.999 -99.9 -99.99 -9.99
2019/06/26 02:18 EDT    4.40   5.38 -999 -999 -999 -99.9 -99.9 -999.9 -9.9 -9.999 -99.9 -99.99 -9.99
2019/06/26 02:24 EDT    4.43   5.40 -999 -999 -999  75.4  69.4 1013.3 -9.9 -9.999 -99.9 -99.99 -9.99
2019/06/26 02:30 EDT    4.46   5.40 -999 -999 -999  75.7  69.6 1013.3 -9.9 -9.999 -99.9 -99.99 -9.99
2019/06/26 02:36 EDT    4.48   5.40 -999 -999 -999  75.9  69.6 1013.3 -9.9 -9.999 -99.9 -99.99 -9.99
2019/06/26 02:42 EDT    4.50   5.40 -999 -999 -999  75.6  70.0 1013.4 -9.9 -9.999 -99.9 -99.99 -9.99
2019/06/26 02:48 EDT    4.51   5.38 -999 -999 -999  75.7  70.0 1013.5 -9.9 -9.999 -99.9 -99.99 -9.99
2019/06/26 02:54 EDT    4.53   5.36 -999 -999 -999  75.9  70.0 1013.5 -9.9 -9.999 -99.9 -99.99 -9.99
2019/06/26 03:00 EDT    4.54   5.33 -999 -999 -999  75.7  70.0 1013.7 -9.9 -9.999 -99.9 -99.99 -9.99
2019/06/26 03:06 EDT    4.54   5.27 -999 -999 -999  76.3  70.0 1013.7 -9.9 -9.999 -99.9 -99.99 -9.99
2019/06/26 03:12 EDT    4.54   5.24 -999 -999 -999  75.9  70.0 1013.8 -9.9 -9.999 -99.9 -99.99 -9.99
2019/06/26 03:18 EDT    4.54   5.21 -999 -999 -999  76.1  70.0 1013.8 -9.9 -9.999 -99.9 -99.99 -9.99
2019/06/26 03:24 EDT    4.54   5.15 -999 -999 -999  76.1  70.0 1013.9 -9.9 -9.999 -99.9 -99.99 -9.99
2019/06/26 03:30 EDT    4.53   5.12 -999 -999 -999  75.9  70.0 1013.9 -9.9 -9.999 -99.9 -99.99 -9.99
2019/06/26 03:36 EDT    4.52   5.08 -999 -999 -999  74.7  70.0 1013.9 -9.9 -9.999 -99.9 -99.99 -9.99
2019/06/26 03:42 EDT    4.50   5.04 -999 -999 -999  75.0  70.0 1014.1 -9.9 -9.999 -99.9 -99.99 -9.99
2019/06/26 03:48 EDT    4.48   4.97 -999 -999 -999  75.4  70.0 1014.1 -9.9 -9.999 -99.9 -99.99 -9.99
2019/06/26 03:54 EDT    4.46   4.92 -999 -999 -999  74.8  70.0 1014.2 -9.9 -9.999 -99.9 -99.99 -9.99
2019/06/26 04:00 EDT    4.43   4.86 -999 -999 -999  75.2  70.2 1014.3 -9.9 -9.999 -99.9 -99.99 -9.99
2019/06/26 04:06 EDT    4.40   4.81 -999 -999 -999  74.7  70.2 1014.5 -9.9 -9.999 -99.9 -99.99 -9.99
2019/06/26 04:12 EDT    4.36   4.77 -999 -999 -999  74.3  70.2 1014.6 -9.9 -9.999 -99.9 -99.99 -9.99
2019/06/26 04:18 EDT    4.32   4.70 -999 -999 -999  74.3  70.2 1014.6 -9.9 -9.999 -99.9 -99.99 -9.99
2019/06/26 04:24 EDT    4.28   4.65 -999 -999 -999  73.6  70.2 1014.7 -9.9 -9.999 -99.9 -99.99 -9.99
2019/06/26 04:30 EDT    4.23   4.59 -999 -999 -999  73.2  70.2 1014.8 -9.9 -9.999 -99.9 -99.99 -9.99
2019/06/26 04:36 EDT    4.17   4.53 -999 -999 -999  72.9  70.2 1014.9 -9.9 -9.999 -99.9 -99.99 -9.99
2019/06/26 04:42 EDT    4.11   4.50 -999 -999 -999  73.0  70.2 1014.9 -9.9 -9.999 -99.9 -99.99 -9.99
2019/06/26 04:48 EDT    4.05   4.46 -999 -999 -999  72.9  70.0 1015.0 -9.9 -9.999 -99.9 -99.99 -9.99
2019/06/26 04:54 EDT    3.98   4.38 -999 -999 -999  72.7  70.0 1015.1 -9.9 -9.999 -99.9 -99.99 -9.99
2019/06/26 05:00 EDT    3.91   4.33 -999 -999 -999  72.9  70.0 1015.2 -9.9 -9.999 -99.9 -99.99 -9.99
2019/06/26 05:06 EDT    3.83   4.27 -999 -999 -999  72.3  70.0 1015.3 -9.9 -9.999 -99.9 -99.99 -9.99
2019/06/26 05:12 EDT    3.75   4.20 -999 -999 -999  72.0  70.0 1015.2 -9.9 -9.999 -99.9 -99.99 -9.99
2019/06/26 05:18 EDT    3.67   4.15 -999 -999 -999  72.1  70.0 1015.3 -9.9 -9.999 -99.9 -99.99 -9.99
2019/06/26 05:24 EDT    3.58   4.06 -999 -999 -999  72.0  70.0 1015.3 -9.9 -9.999 -99.9 -99.99 -9.99
2019/06/26 05:30 EDT    3.49   3.99 -999 -999 -999  71.8  70.0 1015.3 -9.9 -9.999 -99.9 -99.99 -9.99
2019/06/26 05:36 EDT    3.40   3.90 -999 -999 -999  71.8  70.0 1015.5 -9.9 -9.999 -99.9 -99.99 -9.99
2019/06/26 05:42 EDT    3.30   3.82 -999 -999 -999  72.0  70.0 1015.5 -9.9 -9.999 -99.9 -99.99 -9.99
2019/06/26 05:48 EDT    3.21   3.77 -999 -999 -999  72.1  70.0 1015.6 -9.9 -9.999 -99.9 -99.99 -9.99
2019/06/26 05:54 EDT    3.11   3.71 -999 -999 -999  72.0  70.0 1015.6 -9.9 -9.999 -99.9 -99.99 -9.99
2019/06/26 06:00 EDT    3.01   3.61 -999 -999 -999  72.1  70.0 1015.7 -9.9 -9.999 -99.9 -99.99 -9.99
2019/06/26 06:06 EDT    2.91   3.53 -999 -999 -999  72.1  70.0 1015.7 -9.9 -9.999 -99.9 -99.99 -9.99
2019/06/26 06:12 EDT    2.81   3.46 -999 -999 -999  72.0  70.0 1015.8 -9.9 -9.999 -99.9 -99.99 -9.99
2019/06/26 06:18 EDT    2.71   3.38 -999 -999 -999  72.1  70.0 1015.8 -9.9 -9.999 -99.9 -99.99 -9.99
2019/06/26 06:24 EDT    2.61   3.29 -999 -999 -999  72.1  70.0 1015.8 -9.9 -9.999 -99.9 -99.99 -9.99
2019/06/26 06:30 EDT    2.51   3.20 -999 -999 -999  72.1  70.0 1015.8 -9.9 -9.999 -99.9 -99.99 -9.99
2019/06/26 06:36 EDT    2.42   3.11 -999 -999 -999  72.1  70.0 1015.9 -9.9 -9.999 -99.9 -99.99 -9.99
2019/06/26 06:42 EDT    2.32   3.04 -999 -999 -999  72.5  70.0 1016.1 -9.9 -9.999 -99.9 -99.99 -9.99
2019/06/26 06:48 EDT    2.23   2.95 -999 -999 -999  72.5  70.0 1016.2 -9.9 -9.999 -99.9 -99.99 -9.99
2019/06/26 06:54 EDT    2.14   2.87 -999 -999 -999  72.3  70.2 1016.2 -9.9 -9.999 -99.9 -99.99 -9.99
2019/06/26 07:00 EDT    2.05   2.79 -999 -999 -999  72.3  70.2 1016.4 -9.9 -9.999 -99.9 -99.99 -9.99
2019/06/26 07:06 EDT    1.97   2.70 -999 -999 -999  72.7  70.2 1016.4 -9.9 -9.999 -99.9 -99.99 -9.99
2019/06/26 07:12 EDT    1.89   2.62 -999 -999 -999  72.9  70.2 1016.6 -9.9 -9.999 -99.9 -99.99 -9.99
2019/06/26 07:18 EDT    1.81   2.53 -999 -999 -999  73.0  70.0 1016.6 -9.9 -9.999 -99.9 -99.99 -9.99
2019/06/26 07:24 EDT    1.74   2.44 -999 -999 -999  73.2  70.0 1016.7 -9.9 -9.999 -99.9 -99.99 -9.99
2019/06/26 07:30 EDT    1.67   2.36 -999 -999 -999  73.4  70.0 1016.7 -9.9 -9.999 -99.9 -99.99 -9.99
2019/06/26 07:36 EDT    1.60   2.28 -999 -999 -999  73.9  70.2 1016.7 -9.9 -9.999 -99.9 -99.99 -9.99
2019/06/26 07:42 EDT    1.53   2.21 -999 -999 -999  73.9  70.0 1016.7 -9.9 -9.999 -99.9 -99.99 -9.99
2019/06/26 07:48 EDT    1.47   2.14 -999 -999 -999  73.9  70.2 1016.9 -9.9 -9.999 -99.9 -99.99 -9.99
2019/06/26 07:54 EDT    1.42   2.07 -999 -999 -999  73.8  70.2 1017.0 -9.9 -9.999 -99.9 -99.99 -9.99
2019/06/26 08:00 EDT    1.36   2.01 -999 -999 -999  74.1  70.2 1017.1 -9.9 -9.999 -99.9 -99.99 -9.99
2019/06/26 08:06 EDT    1.31   1.95 -999 -999 -999  74.3  70.2 1017.2 -9.9 -9.999 -99.9 -99.99 -9.99
2019/06/26 08:12 EDT    1.27   1.89 -999 -999 -999  74.5  70.2 1017.1 -9.9 -9.999 -99.9 -99.99 -9.99
2019/06/26 08:18 EDT    1.22   1.84 -999 -999 -999  75.2  70.2 1017.2 -9.9 -9.999 -99.9 -99.99 -9.99
2019/06/26 08:24 EDT    1.18   1.79 -999 -999 -999  75.4  70.2 1017.3 -9.9 -9.999 -99.9 -99.99 -9.99
2019/06/26 08:30 EDT    1.14   1.73 -999 -999 -999  75.6  70.2 1017.1 -9.9 -9.999 -99.9 -99.99 -9.99
2019/06/26 08:36 EDT    1.11   1.68 -999 -999 -999  75.7  70.3 1017.2 -9.9 -9.999 -99.9 -99.99 -9.99
2019/06/26 08:42 EDT    1.07   1.63 -999 -999 -999  76.1  70.3 1017.3 -9.9 -9.999 -99.9 -99.99 -9.99
2019/06/26 08:48 EDT    1.04   1.60 -999 -999 -999  76.3  70.3 1017.2 -9.9 -9.999 -99.9 -99.99 -9.99
2019/06/26 08:54 EDT    1.02   1.58 -999 -999 -999  76.5  70.3 1017.3 -9.9 -9.999 -99.9 -99.99 -9.99
2019/06/26 09:00 EDT    0.99   1.54 -999 -999 -999  77.0  70.3 1017.3 -9.9 -9.999 -99.9 -99.99 -9.99
2019/06/26 09:06 EDT    0.97   1.51 -999 -999 -999  77.7  70.3 1017.3 -9.9 -9.999 -99.9 -99.99 -9.99
2019/06/26 09:12 EDT    0.95   1.50 -999 -999 -999  78.1  70.5 1017.2 -9.9 -9.999 -99.9 -99.99 -9.99
2019/06/26 09:18 EDT    0.93   1.49 -999 -999 -999  77.9  70.5 1017.2 -9.9 -9.999 -99.9 -99.99 -9.99
2019/06/26 09:24 EDT    0.91   1.47 -999 -999 -999  78.4  70.5 1017.0 -9.9 -9.999 -99.9 -99.99 -9.99
2019/06/26 09:30 EDT    0.90   1.46 -999 -999 -999  77.9  70.7 1017.0 -9.9 -9.999 -99.9 -99.99 -9.99
2019/06/26 09:36 EDT    0.89   1.46 -999 -999 -999  78.3  70.7 1017.0 -9.9 -9.999 -99.9 -99.99 -9.99
2019/06/26 09:42 EDT    0.89   1.45 -999 -999 -999  78.1  70.7 1017.0 -9.9 -9.999 -99.9 -99.99 -9.99
2019/06/26 09:48 EDT    0.88   1.45 -999 -999 -999  78.6  70.7 1017.1 -9.9 -9.999 -99.9 -99.99 -9.99
2019/06/26 09:54 EDT    0.89   1.46 -999 -999 -999  78.6  70.7 1017.1 -9.9 -9.999 -99.9 -99.99 -9.99
2019/06/26 10:00 EDT    0.89   1.47 -999 -999 -999  79.3  70.7 1017.0 -9.9 -9.999 -99.9 -99.99 -9.99
2019/06/26 10:06 EDT    0.90   1.49 -999 -999 -999  80.6  70.9 1017.0 -9.9 -9.999 -99.9 -99.99 -9.99
2019/06/26 10:12 EDT    0.92   1.50 -999 -999 -999  81.7  70.9 1016.9 -9.9 -9.999 -99.9 -99.99 -9.99
2019/06/26 10:18 EDT    0.94   1.54 -999 -999 -999  80.1  71.1 1016.9 -9.9 -9.999 -99.9 -99.99 -9.99
2019/06/26 10:24 EDT    0.96   1.58 -999 -999 -999  81.0  71.2 1016.9 -9.9 -9.999 -99.9 -99.99 -9.99
2019/06/26 10:30 EDT    0.99   1.62 -999 -999 -999  81.7  71.2 1016.8 -9.9 -9.999 -99.9 -99.99 -9.99
2019/06/26 10:36 EDT    1.03   1.66 -999 -999 -999  81.9  71.2 1016.8 -9.9 -9.999 -99.9 -99.99 -9.99
2019/06/26 10:42 EDT    1.07   1.71 -999 -999 -999  79.7  71.2 1016.9 -9.9 -9.999 -99.9 -99.99 -9.99
2019/06/26 10:48 EDT    1.11   1.78 -999 -999 -999  80.2  71.2 1016.8 -9.9 -9.999 -99.9 -99.99 -9.99
2019/06/26 10:54 EDT    1.17   1.84 -999 -999 -999  80.4  71.2 1016.8 -9.9 -9.999 -99.9 -99.99 -9.99
2019/06/26 11:00 EDT    1.22   1.90 -999 -999 -999  81.0  71.2 1016.8 -9.9 -9.999 -99.9 -99.99 -9.99
2019/06/26 11:06 EDT    1.29   1.97 -999 -999 -999  81.7  71.2 1016.8 -9.9 -9.999 -99.9 -99.99 -9.99
2019/06/26 11:12 EDT    1.36   2.06 -999 -999 -999  81.5  71.1 1016.9 -9.9 -9.999 -99.9 -99.99 -9.99
2019/06/26 11:18 EDT    1.44   2.16 -999 -999 -999  82.0  71.1 1016.9 -9.9 -9.999 -99.9 -99.99 -9.99
2019/06/26 11:24 EDT    1.52   2.28 -999 -999 -999  81.9  71.2 1016.9 -9.9 -9.999 -99.9 -99.99 -9.99
2019/06/26 11:30 EDT    1.60   2.39 -999 -999 -999  82.6  71.1 1016.9 -9.9 -9.999 -99.9 -99.99 -9.99
2019/06/26 11:36 EDT    1.70   2.50 -999 -999 -999  81.9  71.1 1016.9 -9.9 -9.999 -99.9 -99.99 -9.99
2019/06/26 11:42 EDT    1.79   2.62 -999 -999 -999  81.9  71.1 1016.9 -9.9 -9.999 -99.9 -99.99 -9.99
2019/06/26 11:48 EDT    1.90   2.73 -999 -999 -999  82.2  71.1 1017.0 -9.9 -9.999 -99.9 -99.99 -9.99
2019/06/26 11:54 EDT    2.00   2.83 -999 -999 -999  80.6  70.9 1017.0 -9.9 -9.999 -99.9 -99.99 -9.99
2019/06/26 12:00 EDT    2.11   2.92 -999 -999 -999  81.5  70.7 1017.0 -9.9 -9.999 -99.9 -99.99 -9.99
2019/06/26 12:06 EDT    2.22   3.06 -999 -999 -999  82.2  70.3 1016.9 -9.9 -9.999 -99.9 -99.99 -9.99
2019/06/26 12:12 EDT    2.34   3.19 -999 -999 -999  82.4  70.2 1016.8 -9.9 -9.999 -99.9 -99.99 -9.99
2019/06/26 12:18 EDT    2.45   3.32 -999 -999 -999  82.6  70.0 1016.7 -9.9 -9.999 -99.9 -99.99 -9.99
2019/06/26 12:24 EDT    2.57   3.44 -999 -999 -999  82.9  70.0 1016.7 -9.9 -9.999 -99.9 -99.99 -9.99
2019/06/26 12:30 EDT    2.69   3.56 -999 -999 -999  83.7  70.0 1016.6 -9.9 -9.999 -99.9 -99.99 -9.99
2019/06/26 12:36 EDT    2.81   3.64 -999 -999 -999  82.0  70.0 1016.5 -9.9 -9.999 -99.9 -99.99 -9.99
2019/06/26 12:42 EDT    2.93   3.76 -999 -999 -999  83.7  70.0 1016.5 -9.9 -9.999 -99.9 -99.99 -9.99
2019/06/26 12:48 EDT    3.05   3.89 -999 -999 -999  84.7  70.0 1016.4 -9.9 -9.999 -99.9 -99.99 -9.99
2019/06/26 12:54 EDT    3.17   3.98 -999 -999 -999  84.0  70.3 1016.4 -9.9 -9.999 -99.9 -99.99 -9.99
2019/06/26 13:00 EDT    3.28   4.07 -999 -999 -999  84.4  70.3 1016.5 -9.9 -9.999 -99.9 -99.99 -9.99
2019/06/26 13:06 EDT    3.39   4.14 -999 -999 -999  84.2  70.3 1016.4 -9.9 -9.999 -99.9 -99.99 -9.99
2019/06/26 13:12 EDT    3.51   4.25 -999 -999 -999  83.5  70.3 1016.3 -9.9 -9.999 -99.9 -99.99 -9.99
2019/06/26 13:18 EDT    3.61   4.36 -999 -999 -999  84.2  70.3 1016.3 -9.9 -9.999 -99.9 -99.99 -9.99
2019/06/26 13:24 EDT    3.72   4.46 -999 -999 -999  84.2  70.2 1016.2 -9.9 -9.999 -99.9 -99.99 -9.99
2019/06/26 13:30 EDT    3.82   4.55 -999 -999 -999  84.7  70.2 1016.2 -9.9 -9.999 -99.9 -99.99 -9.99
2019/06/26 13:36 EDT    3.91   4.62 -999 -999 -999  83.7  70.2 1016.1 -9.9 -9.999 -99.9 -99.99 -9.99
2019/06/26 13:42 EDT    4.00   4.68 -999 -999 -999  84.6  70.2 1016.1 -9.9 -9.999 -99.9 -99.99 -9.99
2019/06/26 13:48 EDT    4.09   4.74 -999 -999 -999  85.1  70.2 1016.1 -9.9 -9.999 -99.9 -99.99 -9.99
2019/06/26 13:54 EDT    4.17   4.81 -999 -999 -999  84.7  70.0 1016.1 -9.9 -9.999 -99.9 -99.99 -9.99
2019/06/26 14:00 EDT    4.25   4.87 -999 -999 -999  85.6  70.0 1016.1 -9.9 -9.999 -99.9 -99.99 -9.99
2019/06/26 14:06 EDT    4.32   4.94 -999 -999 -999  85.6  70.0 1016.0 -9.9 -9.999 -99.9 -99.99 -9.99
2019/06/26 14:12 EDT    4.39   4.99 -999 -999 -999  86.0  70.0 1015.9 -9.9 -9.999 -99.9 -99.99 -9.99
2019/06/26 14:18 EDT    4.46   5.03 -999 -999 -999  86.7  70.0 1015.9 -9.9 -9.999 -99.9 -99.99 -9.99
2019/06/26 14:24 EDT    4.52   5.07 -999 -999 -999  86.0  70.0 1015.8 -9.9 -9.999 -99.9 -99.99 -9.99
2019/06/26 14:30 EDT    4.57   5.11 -999 -999 -999  86.0  70.0 1015.7 -9.9 -9.999 -99.9 -99.99 -9.99
2019/06/26 14:36 EDT    4.62   5.12 -999 -999 -999  86.9  70.2 1015.7 -9.9 -9.999 -99.9 -99.99 -9.99
2019/06/26 14:42 EDT    4.67   5.17 -999 -999 -999  87.4  70.2 1015.6 -9.9 -9.999 -99.9 -99.99 -9.99
2019/06/26 14:48 EDT    4.71   5.17 -999 -999 -999  85.8  70.3 1015.6 -9.9 -9.999 -99.9 -99.99 -9.99
2019/06/26 14:54 EDT    4.74   5.17 -999 -999 -999  85.8  70.3 1015.7 -9.9 -9.999 -99.9 -99.99 -9.99
2019/06/26 15:00 EDT    4.78   5.20 -999 -999 -999  86.2  70.3 1015.8 -9.9 -9.999 -99.9 -99.99 -9.99
2019/06/26 15:06 EDT    4.80   5.22 -999 -999 -999  85.8  70.3 1015.8 -9.9 -9.999 -99.9 -99.99 -9.99
2019/06/26 15:12 EDT    4.83   5.24 -999 -999 -999  86.7  70.2 1015.7 -9.9 -9.999 -99.9 -99.99 -9.99
2019/06/26 15:18 EDT    4.85   5.23 -999 -999 -999  85.1  70.2 1015.8 -9.9 -9.999 -99.9 -99.99 -9.99
2019/06/26 15:24 EDT    4.87   5.22 -999 -999 -999  86.0  70.2 1015.8 -9.9 -9.999 -99.9 -99.99 -9.99
2019/06/26 15:30 EDT    4.88   5.24 -999 -999 -999  86.5  70.2 1015.7 -9.9 -9.999 -99.9 -99.99 -9.99
2019/06/26 15:36 EDT    4.89   5.25 -999 -999 -999  86.0  70.2 1015.6 -9.9 -9.999 -99.9 -99.99 -9.99
2019/06/26 15:42 EDT    4.90   5.29 -999 -999 -999  87.6  70.2 1015.6 -9.9 -9.999 -99.9 -99.99 -9.99
2019/06/26 15:48 EDT    4.90   5.28 -999 -999 -999  86.9  70.3 1015.6 -9.9 -9.999 -99.9 -99.99 -9.99
2019/06/26 15:54 EDT    4.90   5.28 -999 -999 -999  87.1  70.5 1015.5 -9.9 -9.999 -99.9 -99.99 -9.99
2019/06/26 16:00 EDT    4.90   5.27 -999 -999 -999  88.0  70.5 1015.5 -9.9 -9.999 -99.9 -99.99 -9.99
2019/06/26 16:06 EDT    4.89   5.24 -999 -999 -999  87.6  70.5 1015.5 -9.9 -9.999 -99.9 -99.99 -9.99
2019/06/26 16:12 EDT    4.88   5.29 -999 -999 -999  87.3  70.5 1015.5 -9.9 -9.999 -99.9 -99.99 -9.99
2019/06/26 16:18 EDT    4.86   5.28 -999 -999 -999  88.3  70.5 1015.5 -9.9 -9.999 -99.9 -99.99 -9.99
2019/06/26 16:24 EDT    4.84   5.27 -999 -999 -999  87.6  70.5 1015.5 -9.9 -9.999 -99.9 -99.99 -9.99
2019/06/26 16:30 EDT    4.81   5.25 -999 -999 -999  87.1  70.9 1015.5 -9.9 -9.999 -99.9 -99.99 -9.99
2019/06/26 16:36 EDT    4.79   5.24 -999 -999 -999  87.4  71.1 1015.6 -9.9 -9.999 -99.9 -99.99 -9.99
2019/06/26 16:42 EDT    4.75   5.24 -999 -999 -999  87.8  71.1 1015.5 -9.9 -9.999 -99.9 -99.99 -9.99
2019/06/26 16:48 EDT    4.72   5.21 -999 -999 -999  87.1  71.6 1015.5 -9.9 -9.999 -99.9 -99.99 -9.99
2019/06/26 16:54 EDT    4.68   5.18 -999 -999 -999  87.4  72.0 1015.5 -9.9 -9.999 -99.9 -99.99 -9.99
2019/06/26 17:00 EDT    4.63   5.14 -999 -999 -999  87.4  71.8 1015.4 -9.9 -9.999 -99.9 -99.99 -9.99
2019/06/26 17:06 EDT    4.58   5.10 -999 -999 -999  87.6  72.0 1015.4 -9.9 -9.999 -99.9 -99.99 -9.99
2019/06/26 17:12 EDT    4.53   5.06 -999 -999 -999  87.8  72.0 1015.3 -9.9 -9.999 -99.9 -99.99 -9.99
2019/06/26 17:18 EDT    4.47   5.02 -999 -999 -999  87.1  72.0 1015.4 -9.9 -9.999 -99.9 -99.99 -9.99
2019/06/26 17:24 EDT    4.41   4.96 -999 -999 -999  87.1  72.0 1015.5 -9.9 -9.999 -99.9 -99.99 -9.99
2019/06/26 17:30 EDT    4.34   4.91 -999 -999 -999  87.6  72.0 1015.4 -9.9 -9.999 -99.9 -99.99 -9.99
2019/06/26 17:36 EDT    4.27   4.84 -999 -999 -999  87.4  72.0 1015.5 -9.9 -9.999 -99.9 -99.99 -9.99
2019/06/26 17:42 EDT    4.20   4.74 -999 -999 -999  88.0  72.0 1015.4 -9.9 -9.999 -99.9 -99.99 -9.99
2019/06/26 17:48 EDT    4.12   4.67 -999 -999 -999  87.3  72.0 1015.3 -9.9 -9.999 -99.9 -99.99 -9.99
2019/06/26 17:54 EDT    4.04   4.58 -999 -999 -999  87.3  72.1 1015.3 -9.9 -9.999 -99.9 -99.99 -9.99
2019/06/26 18:00 EDT    3.96   4.51 -999 -999 -999  86.9  72.0 1015.5 -9.9 -9.999 -99.9 -99.99 -9.99
2019/06/26 18:06 EDT    3.88   4.43 -999 -999 -999  87.8  72.0 1015.4 -9.9 -9.999 -99.9 -99.99 -9.99
2019/06/26 18:12 EDT    3.79   4.35 -999 -999 -999  87.1  72.0 1015.6 -9.9 -9.999 -99.9 -99.99 -9.99
2019/06/26 18:18 EDT    3.70 -99.99 -999 -999 -999 -99.9 -99.9 -999.9 -9.9 -9.999 -99.9 -99.99 -9.99
2019/06/26 18:24 EDT    3.62 -99.99 -999 -999 -999 -99.9 -99.9 -999.9 -9.9 -9.999 -99.9 -99.99 -9.99
2019/06/26 18:30 EDT    3.53 -99.99 -999 -999 -999 -99.9 -99.9 -999.9 -9.9 -9.999 -99.9 -99.99 -9.99
2019/06/26 18:36 EDT    3.44 -99.99 -999 -999 -999 -99.9 -99.9 -999.9 -9.9 -9.999 -99.9 -99.99 -9.99
2019/06/26 18:42 EDT    3.35 -99.99 -999 -999 -999 -99.9 -99.9 -999.9 -9.9 -9.999 -99.9 -99.99 -9.99
2019/06/26 18:48 EDT    3.26 -99.99 -999 -999 -999 -99.9 -99.9 -999.9 -9.9 -9.999 -99.9 -99.99 -9.99
2019/06/26 18:54 EDT    3.17 -99.99 -999 -999 -999 -99.9 -99.9 -999.9 -9.9 -9.999 -99.9 -99.99 -9.99
2019/06/26 19:00 EDT    3.08 -99.99 -999 -999 -999 -99.9 -99.9 -999.9 -9.9 -9.999 -99.9 -99.99 -9.99
2019/06/26 19:06 EDT    2.99 -99.99 -999 -999 -999 -99.9 -99.9 -999.9 -9.9 -9.999 -99.9 -99.99 -9.99
2019/06/26 19:12 EDT    2.91 -99.99 -999 -999 -999 -99.9 -99.9 -999.9 -9.9 -9.999 -99.9 -99.99 -9.99
2019/06/26 19:18 EDT    2.83 -99.99 -999 -999 -999 -99.9 -99.9 -999.9 -9.9 -9.999 -99.9 -99.99 -9.99
2019/06/26 19:24 EDT    2.75 -99.99 -999 -999 -999 -99.9 -99.9 -999.9 -9.9 -9.999 -99.9 -99.99 -9.99
2019/06/26 19:30 EDT    2.67 -99.99 -999 -999 -999 -99.9 -99.9 -999.9 -9.9 -9.999 -99.9 -99.99 -9.99
2019/06/26 19:36 EDT    2.59 -99.99 -999 -999 -999 -99.9 -99.9 -999.9 -9.9 -9.999 -99.9 -99.99 -9.99
2019/06/26 19:42 EDT    2.52 -99.99 -999 -999 -999 -99.9 -99.9 -999.9 -9.9 -9.999 -99.9 -99.99 -9.99
2019/06/26 19:48 EDT    2.45 -99.99 -999 -999 -999 -99.9 -99.9 -999.9 -9.9 -9.999 -99.9 -99.99 -9.99
2019/06/26 19:54 EDT    2.38 -99.99 -999 -999 -999 -99.9 -99.9 -999.9 -9.9 -9.999 -99.9 -99.99 -9.99
2019/06/26 20:00 EDT    2.31 -99.99 -999 -999 -999 -99.9 -99.9 -999.9 -9.9 -9.999 -99.9 -99.99 -9.99
2019/06/26 20:06 EDT    2.25 -99.99 -999 -999 -999 -99.9 -99.9 -999.9 -9.9 -9.999 -99.9 -99.99 -9.99
2019/06/26 20:12 EDT    2.19 -99.99 -999 -999 -999 -99.9 -99.9 -999.9 -9.9 -9.999 -99.9 -99.99 -9.99
2019/06/26 20:18 EDT    2.13 -99.99 -999 -999 -999 -99.9 -99.9 -999.9 -9.9 -9.999 -99.9 -99.99 -9.99
2019/06/26 20:24 EDT    2.07 -99.99 -999 -999 -999 -99.9 -99.9 -999.9 -9.9 -9.999 -99.9 -99.99 -9.99
2019/06/26 20:30 EDT    2.02 -99.99 -999 -999 -999 -99.9 -99.9 -999.9 -9.9 -9.999 -99.9 -99.99 -9.99
2019/06/26 20:36 EDT    1.97 -99.99 -999 -999 -999 -99.9 -99.9 -999.9 -9.9 -9.999 -99.9 -99.99 -9.99
2019/06/26 20:42 EDT    1.92 -99.99 -999 -999 -999 -99.9 -99.9 -999.9 -9.9 -9.999 -99.9 -99.99 -9.99
2019/06/26 20:48 EDT    1.87 -99.99 -999 -999 -999 -99.9 -99.9 -999.9 -9.9 -9.999 -99.9 -99.99 -9.99
2019/06/26 20:54 EDT    1.82 -99.99 -999 -999 -999 -99.9 -99.9 -999.9 -9.9 -9.999 -99.9 -99.99 -9.99
2019/06/26 21:00 EDT    1.78 -99.99 -999 -999 -999 -99.9 -99.9 -999.9 -9.9 -9.999 -99.9 -99.99 -9.99
2019/06/26 21:06 EDT    1.74 -99.99 -999 -999 -999 -99.9 -99.9 -999.9 -9.9 -9.999 -99.9 -99.99 -9.99
2019/06/26 21:12 EDT    1.69 -99.99 -999 -999 -999 -99.9 -99.9 -999.9 -9.9 -9.999 -99.9 -99.99 -9.99
2019/06/26 21:18 EDT    1.65 -99.99 -999 -999 -999 -99.9 -99.9 -999.9 -9.9 -9.999 -99.9 -99.99 -9.99
2019/06/26 21:24 EDT    1.62 -99.99 -999 -999 -999 -99.9 -99.9 -999.9 -9.9 -9.999 -99.9 -99.99 -9.99
2019/06/26 21:30 EDT    1.58 -99.99 -999 -999 -999 -99.9 -99.9 -999.9 -9.9 -9.999 -99.9 -99.99 -9.99
2019/06/26 21:36 EDT    1.55 -99.99 -999 -999 -999 -99.9 -99.9 -999.9 -9.9 -9.999 -99.9 -99.99 -9.99
2019/06/26 21:42 EDT    1.51 -99.99 -999 -999 -999 -99.9 -99.9 -999.9 -9.9 -9.999 -99.9 -99.99 -9.99
2019/06/26 21:48 EDT    1.48 -99.99 -999 -999 -999 -99.9 -99.9 -999.9 -9.9 -9.999 -99.9 -99.99 -9.99
2019/06/26 21:54 EDT    1.45 -99.99 -999 -999 -999 -99.9 -99.9 -999.9 -9.9 -9.999 -99.9 -99.99 -9.99
2019/06/26 22:00 EDT    1.43 -99.99 -999 -999 -999 -99.9 -99.9 -999.9 -9.9 -9.999 -99.9 -99.99 -9.99
2019/06/26 22:06 EDT    1.40 -99.99 -999 -999 -999 -99.9 -99.9 -999.9 -9.9 -9.999 -99.9 -99.99 -9.99
2019/06/26 22:12 EDT    1.38 -99.99 -999 -999 -999 -99.9 -99.9 -999.9 -9.9 -9.999 -99.9 -99.99 -9.99
2019/06/26 22:18 EDT    1.36 -99.99 -999 -999 -999 -99.9 -99.9 -999.9 -9.9 -9.999 -99.9 -99.99 -9.99
2019/06/26 22:24 EDT    1.35 -99.99 -999 -999 -999 -99.9 -99.9 -999.9 -9.9 -9.999 -99.9 -99.99 -9.99
2019/06/26 22:30 EDT    1.34 -99.99 -999 -999 -999 -99.9 -99.9 -999.9 -9.9 -9.999 -99.9 -99.99 -9.99
2019/06/26 22:36 EDT    1.33 -99.99 -999 -999 -999 -99.9 -99.9 -999.9 -9.9 -9.999 -99.9 -99.99 -9.99
2019/06/26 22:42 EDT    1.33 -99.99 -999 -999 -999 -99.9 -99.9 -999.9 -9.9 -9.999 -99.9 -99.99 -9.99
2019/06/26 22:48 EDT    1.33 -99.99 -999 -999 -999 -99.9 -99.9 -999.9 -9.9 -9.999 -99.9 -99.99 -9.99
2019/06/26 22:54 EDT    1.34 -99.99 -999 -999 -999 -99.9 -99.9 -999.9 -9.9 -9.999 -99.9 -99.99 -9.99
2019/06/26 23:00 EDT    1.36 -99.99 -999 -999 -999 -99.9 -99.9 -999.9 -9.9 -9.999 -99.9 -99.99 -9.99
2019/06/26 23:06 EDT    1.37 -99.99 -999 -999 -999 -99.9 -99.9 -999.9 -9.9 -9.999 -99.9 -99.99 -9.99
2019/06/26 23:12 EDT    1.40 -99.99 -999 -999 -999 -99.9 -99.9 -999.9 -9.9 -9.999 -99.9 -99.99 -9.99
2019/06/26 23:18 EDT    1.43 -99.99 -999 -999 -999 -99.9 -99.9 -999.9 -9.9 -9.999 -99.9 -99.99 -9.99
2019/06/26 23:24 EDT    1.47 -99.99 -999 -999 -999 -99.9 -99.9 -999.9 -9.9 -9.999 -99.9 -99.99 -9.99
2019/06/26 23:30 EDT    1.51 -99.99 -999 -999 -999 -99.9 -99.9 -999.9 -9.9 -9.999 -99.9 -99.99 -9.99
2019/06/26 23:36 EDT    1.56 -99.99 -999 -999 -999 -99.9 -99.9 -999.9 -9.9 -9.999 -99.9 -99.99 -9.99
2019/06/26 23:42 EDT    1.61 -99.99 -999 -999 -999 -99.9 -99.9 -999.9 -9.9 -9.999 -99.9 -99.99 -9.99
2019/06/26 23:48 EDT    1.67 -99.99 -999 -999 -999 -99.9 -99.9 -999.9 -9.9 -9.999 -99.9 -99.99 -9.99
2019/06/26 23:54 EDT    1.74 -99.99 -999 -999 -999 -99.9 -99.9 -999.9 -9.9 -9.999 -99.9 -99.99 -9.99
2019/06/27 00:00 EDT    1.81 -99.99 -999 -999 -999 -99.9 -99.9 -999.9 -9.9 -9.999 -99.9 -99.99 -9.99
2019/06/27 00:06 EDT    1.88 -99.99 -999 -999 -999 -99.9 -99.9 -999.9 -9.9 -9.999 -99.9 -99.99 -9.99
2019/06/27 00:12 EDT    1.96 -99.99 -999 -999 -999 -99.9 -99.9 -999.9 -9.9 -9.999 -99.9 -99.99 -9.99
2019/06/27 00:18 EDT    2.05 -99.99 -999 -999 -999 -99.9 -99.9 -999.9 -9.9 -9.999 -99.9 -99.99 -9.99
2019/06/27 00:24 EDT    2.14 -99.99 -999 -999 -999 -99.9 -99.9 -999.9 -9.9 -9.999 -99.9 -99.99 -9.99
2019/06/27 00:30 EDT    2.23 -99.99 -999 -999 -999 -99.9 -99.9 -999.9 -9.9 -9.999 -99.9 -99.99 -9.99

Revised: 08/08/2018
NOAA / National Ocean Service
Web site owner: Center for Operational Oceanographic Products and Services